sensor_id;sensor_type;location;lat;lon;timestamp;P1;durP1;ratioP1;P2;durP2;ratioP2
44214;SDS011;29884;47.450;19.124;2023-04-28T00:01:31;9.80;;;4.68;;
44214;SDS011;29884;47.450;19.124;2023-04-28T00:03:57;12.82;;;5.38;;
44214;SDS011;29884;47.450;19.124;2023-04-28T00:06:23;13.80;;;4.70;;
44214;SDS011;29884;47.450;19.124;2023-04-28T00:08:48;10.50;;;4.47;;
44214;SDS011;29884;47.450;19.124;2023-04-28T00:11:14;10.82;;;5.28;;
44214;SDS011;29884;47.450;19.124;2023-04-28T00:13:40;10.77;;;4.80;;
44214;SDS011;29884;47.450;19.124;2023-04-28T00:16:06;10.35;;;4.90;;
44214;SDS011;29884;47.450;19.124;2023-04-28T00:18:31;12.52;;;5.13;;
44214;SDS011;29884;47.450;19.124;2023-04-28T00:20:57;11.18;;;4.80;;
44214;SDS011;29884;47.450;19.124;2023-04-28T00:23:23;12.70;;;5.20;;
44214;SDS011;29884;47.450;19.124;2023-04-28T00:25:50;10.93;;;4.85;;
44214;SDS011;29884;47.450;19.124;2023-04-28T00:28:16;8.90;;;4.63;;
44214;SDS011;29884;47.450;19.124;2023-04-28T00:30:42;11.85;;;4.43;;
44214;SDS011;29884;47.450;19.124;2023-04-28T00:33:08;10.20;;;4.57;;
44214;SDS011;29884;47.450;19.124;2023-04-28T00:35:33;9.50;;;4.43;;
44214;SDS011;29884;47.450;19.124;2023-04-28T00:37:59;9.85;;;4.80;;
44214;SDS011;29884;47.450;19.124;2023-04-28T00:40:32;10.80;;;4.60;;
44214;SDS011;29884;47.450;19.124;2023-04-28T00:42:58;10.75;;;4.55;;
44214;SDS011;29884;47.450;19.124;2023-04-28T00:45:24;9.48;;;4.60;;
44214;SDS011;29884;47.450;19.124;2023-04-28T00:47:50;11.82;;;4.25;;
44214;SDS011;29884;47.450;19.124;2023-04-28T00:50:15;11.02;;;4.13;;
44214;SDS011;29884;47.450;19.124;2023-04-28T00:52:41;7.07;;;4.18;;
44214;SDS011;29884;47.450;19.124;2023-04-28T00:55:08;9.63;;;4.45;;
44214;SDS011;29884;47.450;19.124;2023-04-28T00:57:34;9.77;;;4.38;;
44214;SDS011;29884;47.450;19.124;2023-04-28T01:00:01;7.18;;;3.92;;
44214;SDS011;29884;47.450;19.124;2023-04-28T01:02:27;8.75;;;4.13;;
44214;SDS011;29884;47.450;19.124;2023-04-28T01:04:55;9.10;;;4.22;;
44214;SDS011;29884;47.450;19.124;2023-04-28T01:07:21;8.57;;;3.40;;
44214;SDS011;29884;47.450;19.124;2023-04-28T01:09:47;7.65;;;4.53;;
44214;SDS011;29884;47.450;19.124;2023-04-28T01:12:12;10.77;;;4.10;;
44214;SDS011;29884;47.450;19.124;2023-04-28T01:14:38;8.60;;;4.18;;
44214;SDS011;29884;47.450;19.124;2023-04-28T01:17:04;9.85;;;4.40;;
44214;SDS011;29884;47.450;19.124;2023-04-28T01:19:31;10.45;;;4.13;;
44214;SDS011;29884;47.450;19.124;2023-04-28T01:21:57;10.35;;;4.03;;
44214;SDS011;29884;47.450;19.124;2023-04-28T01:24:23;8.70;;;3.80;;
44214;SDS011;29884;47.450;19.124;2023-04-28T01:26:49;7.68;;;3.90;;
44214;SDS011;29884;47.450;19.124;2023-04-28T01:29:14;9.23;;;4.72;;
44214;SDS011;29884;47.450;19.124;2023-04-28T01:31:40;10.20;;;4.30;;
44214;SDS011;29884;47.450;19.124;2023-04-28T01:34:06;8.32;;;3.90;;
44214;SDS011;29884;47.450;19.124;2023-04-28T01:36:32;9.93;;;4.50;;
44214;SDS011;29884;47.450;19.124;2023-04-28T01:38:58;10.20;;;4.43;;
44214;SDS011;29884;47.450;19.124;2023-04-28T01:41:24;10.43;;;4.88;;
44214;SDS011;29884;47.450;19.124;2023-04-28T01:43:49;11.38;;;4.60;;
44214;SDS011;29884;47.450;19.124;2023-04-28T01:46:16;9.63;;;3.97;;
44214;SDS011;29884;47.450;19.124;2023-04-28T01:48:42;7.88;;;3.95;;
44214;SDS011;29884;47.450;19.124;2023-04-28T01:51:07;9.57;;;4.32;;
44214;SDS011;29884;47.450;19.124;2023-04-28T01:53:33;11.90;;;4.38;;
44214;SDS011;29884;47.450;19.124;2023-04-28T01:55:59;8.93;;;4.20;;
44214;SDS011;29884;47.450;19.124;2023-04-28T01:58:25;8.48;;;4.00;;
44214;SDS011;29884;47.450;19.124;2023-04-28T02:00:50;6.57;;;3.75;;
44214;SDS011;29884;47.450;19.124;2023-04-28T02:03:16;9.00;;;4.25;;
44214;SDS011;29884;47.450;19.124;2023-04-28T02:05:42;11.00;;;4.15;;
44214;SDS011;29884;47.450;19.124;2023-04-28T02:08:08;11.60;;;4.68;;
44214;SDS011;29884;47.450;19.124;2023-04-28T02:10:33;7.22;;;3.65;;
44214;SDS011;29884;47.450;19.124;2023-04-28T02:12:59;8.77;;;3.40;;
44214;SDS011;29884;47.450;19.124;2023-04-28T02:15:25;9.25;;;4.18;;
44214;SDS011;29884;47.450;19.124;2023-04-28T02:17:50;12.25;;;4.20;;
44214;SDS011;29884;47.450;19.124;2023-04-28T02:20:16;9.38;;;3.75;;
44214;SDS011;29884;47.450;19.124;2023-04-28T02:22:42;6.70;;;3.83;;
44214;SDS011;29884;47.450;19.124;2023-04-28T02:25:08;9.32;;;4.00;;
44214;SDS011;29884;47.450;19.124;2023-04-28T02:27:34;11.60;;;3.90;;
44214;SDS011;29884;47.450;19.124;2023-04-28T02:30:01;12.23;;;4.07;;
44214;SDS011;29884;47.450;19.124;2023-04-28T02:32:30;8.02;;;4.00;;
44214;SDS011;29884;47.450;19.124;2023-04-28T02:34:56;6.93;;;3.95;;
44214;SDS011;29884;47.450;19.124;2023-04-28T02:37:22;9.57;;;4.30;;
44214;SDS011;29884;47.450;19.124;2023-04-28T02:39:48;8.20;;;4.10;;
44214;SDS011;29884;47.450;19.124;2023-04-28T02:42:14;10.30;;;4.07;;
44214;SDS011;29884;47.450;19.124;2023-04-28T02:44:40;9.10;;;4.55;;
44214;SDS011;29884;47.450;19.124;2023-04-28T02:47:06;8.38;;;4.28;;
44214;SDS011;29884;47.450;19.124;2023-04-28T02:49:31;11.32;;;4.07;;
44214;SDS011;29884;47.450;19.124;2023-04-28T02:51:57;10.75;;;4.53;;
44214;SDS011;29884;47.450;19.124;2023-04-28T02:54:23;11.60;;;4.50;;
44214;SDS011;29884;47.450;19.124;2023-04-28T02:56:55;10.27;;;4.20;;
44214;SDS011;29884;47.450;19.124;2023-04-28T02:59:22;9.52;;;4.45;;
44214;SDS011;29884;47.450;19.124;2023-04-28T03:01:48;10.95;;;4.20;;
44214;SDS011;29884;47.450;19.124;2023-04-28T03:04:14;10.25;;;4.65;;
44214;SDS011;29884;47.450;19.124;2023-04-28T03:06:40;10.07;;;4.45;;
44214;SDS011;29884;47.450;19.124;2023-04-28T03:09:07;7.00;;;3.90;;
44214;SDS011;29884;47.450;19.124;2023-04-28T03:11:33;9.60;;;4.20;;
44214;SDS011;29884;47.450;19.124;2023-04-28T03:13:59;9.48;;;5.18;;
44214;SDS011;29884;47.450;19.124;2023-04-28T03:16:25;9.52;;;4.47;;
44214;SDS011;29884;47.450;19.124;2023-04-28T03:18:52;9.23;;;4.85;;
44214;SDS011;29884;47.450;19.124;2023-04-28T03:21:17;10.55;;;4.80;;
44214;SDS011;29884;47.450;19.124;2023-04-28T03:23:43;9.85;;;4.28;;
44214;SDS011;29884;47.450;19.124;2023-04-28T03:26:09;12.00;;;5.03;;
44214;SDS011;29884;47.450;19.124;2023-04-28T03:28:35;10.27;;;4.95;;
44214;SDS011;29884;47.450;19.124;2023-04-28T03:31:01;7.68;;;4.28;;
44214;SDS011;29884;47.450;19.124;2023-04-28T03:33:27;10.40;;;4.93;;
44214;SDS011;29884;47.450;19.124;2023-04-28T03:35:53;14.57;;;4.97;;
44214;SDS011;29884;47.450;19.124;2023-04-28T03:38:19;9.77;;;4.35;;
44214;SDS011;29884;47.450;19.124;2023-04-28T03:40:44;13.38;;;4.72;;
44214;SDS011;29884;47.450;19.124;2023-04-28T03:43:10;8.45;;;4.90;;
44214;SDS011;29884;47.450;19.124;2023-04-28T03:45:37;11.52;;;5.13;;
44214;SDS011;29884;47.450;19.124;2023-04-28T03:48:02;8.10;;;4.85;;
44214;SDS011;29884;47.450;19.124;2023-04-28T03:50:28;10.80;;;4.80;;
44214;SDS011;29884;47.450;19.124;2023-04-28T03:52:54;8.27;;;4.43;;
44214;SDS011;29884;47.450;19.124;2023-04-28T03:55:20;12.43;;;5.00;;
44214;SDS011;29884;47.450;19.124;2023-04-28T03:57:45;10.57;;;5.55;;
44214;SDS011;29884;47.450;19.124;2023-04-28T04:00:11;9.07;;;4.47;;
44214;SDS011;29884;47.450;19.124;2023-04-28T04:02:37;13.05;;;4.95;;
44214;SDS011;29884;47.450;19.124;2023-04-28T04:05:03;9.70;;;5.07;;
44214;SDS011;29884;47.450;19.124;2023-04-28T04:07:29;8.23;;;4.65;;
44214;SDS011;29884;47.450;19.124;2023-04-28T04:09:55;7.55;;;4.07;;
44214;SDS011;29884;47.450;19.124;2023-04-28T04:12:21;8.23;;;4.63;;
44214;SDS011;29884;47.450;19.124;2023-04-28T04:14:46;9.00;;;4.80;;
44214;SDS011;29884;47.450;19.124;2023-04-28T04:17:12;11.10;;;4.88;;
44214;SDS011;29884;47.450;19.124;2023-04-28T04:19:38;8.52;;;4.38;;
44214;SDS011;29884;47.450;19.124;2023-04-28T04:22:04;8.43;;;4.95;;
44214;SDS011;29884;47.450;19.124;2023-04-28T04:24:30;11.00;;;5.15;;
44214;SDS011;29884;47.450;19.124;2023-04-28T04:26:55;10.93;;;4.55;;
44214;SDS011;29884;47.450;19.124;2023-04-28T04:29:21;13.27;;;4.97;;
44214;SDS011;29884;47.450;19.124;2023-04-28T04:31:47;9.70;;;5.18;;
44214;SDS011;29884;47.450;19.124;2023-04-28T04:34:13;9.75;;;4.32;;
44214;SDS011;29884;47.450;19.124;2023-04-28T04:36:39;8.93;;;4.55;;
44214;SDS011;29884;47.450;19.124;2023-04-28T04:39:05;12.63;;;4.97;;
44214;SDS011;29884;47.450;19.124;2023-04-28T04:41:30;10.13;;;5.07;;
44214;SDS011;29884;47.450;19.124;2023-04-28T04:43:56;10.40;;;4.88;;
44214;SDS011;29884;47.450;19.124;2023-04-28T04:46:22;10.77;;;4.63;;
44214;SDS011;29884;47.450;19.124;2023-04-28T04:48:48;9.02;;;4.80;;
44214;SDS011;29884;47.450;19.124;2023-04-28T04:51:13;9.90;;;4.57;;
44214;SDS011;29884;47.450;19.124;2023-04-28T04:53:39;8.95;;;4.38;;
44214;SDS011;29884;47.450;19.124;2023-04-28T04:56:05;8.40;;;4.47;;
44214;SDS011;29884;47.450;19.124;2023-04-28T04:58:31;8.27;;;4.32;;
44214;SDS011;29884;47.450;19.124;2023-04-28T05:00:57;7.70;;;4.47;;
44214;SDS011;29884;47.450;19.124;2023-04-28T05:03:23;11.02;;;4.63;;
44214;SDS011;29884;47.450;19.124;2023-04-28T05:05:49;9.57;;;4.07;;
44214;SDS011;29884;47.450;19.124;2023-04-28T05:08:15;8.30;;;4.32;;
44214;SDS011;29884;47.450;19.124;2023-04-28T05:10:41;9.70;;;4.50;;
44214;SDS011;29884;47.450;19.124;2023-04-28T05:13:06;9.60;;;4.25;;
44214;SDS011;29884;47.450;19.124;2023-04-28T05:15:32;9.35;;;4.00;;
44214;SDS011;29884;47.450;19.124;2023-04-28T05:17:58;5.47;;;3.92;;
44214;SDS011;29884;47.450;19.124;2023-04-28T05:20:24;9.95;;;4.20;;
44214;SDS011;29884;47.450;19.124;2023-04-28T05:22:50;10.48;;;3.90;;
44214;SDS011;29884;47.450;19.124;2023-04-28T05:25:16;7.85;;;3.88;;
44214;SDS011;29884;47.450;19.124;2023-04-28T05:27:41;7.18;;;4.13;;
44214;SDS011;29884;47.450;19.124;2023-04-28T05:30:07;11.13;;;4.28;;
44214;SDS011;29884;47.450;19.124;2023-04-28T05:32:34;8.52;;;4.15;;
44214;SDS011;29884;47.450;19.124;2023-04-28T05:35:02;9.20;;;4.28;;
44214;SDS011;29884;47.450;19.124;2023-04-28T05:37:28;7.05;;;4.28;;
44214;SDS011;29884;47.450;19.124;2023-04-28T05:39:53;7.50;;;4.13;;
44214;SDS011;29884;47.450;19.124;2023-04-28T05:42:19;7.60;;;3.50;;
44214;SDS011;29884;47.450;19.124;2023-04-28T05:44:45;6.82;;;3.38;;
44214;SDS011;29884;47.450;19.124;2023-04-28T05:47:11;6.13;;;2.80;;
44214;SDS011;29884;47.450;19.124;2023-04-28T05:49:37;6.07;;;3.60;;
44214;SDS011;29884;47.450;19.124;2023-04-28T05:52:03;6.70;;;3.58;;
44214;SDS011;29884;47.450;19.124;2023-04-28T05:54:28;6.50;;;3.40;;
44214;SDS011;29884;47.450;19.124;2023-04-28T05:56:55;7.40;;;3.40;;
44214;SDS011;29884;47.450;19.124;2023-04-28T05:59:22;6.75;;;3.00;;
44214;SDS011;29884;47.450;19.124;2023-04-28T06:01:48;5.70;;;2.83;;
44214;SDS011;29884;47.450;19.124;2023-04-28T06:04:14;8.80;;;3.15;;
44214;SDS011;29884;47.450;19.124;2023-04-28T06:06:40;9.52;;;2.97;;
44214;SDS011;29884;47.450;19.124;2023-04-28T06:09:06;7.90;;;2.55;;
44214;SDS011;29884;47.450;19.124;2023-04-28T06:11:33;4.93;;;2.33;;
44214;SDS011;29884;47.450;19.124;2023-04-28T06:13:59;5.75;;;2.92;;
44214;SDS011;29884;47.450;19.124;2023-04-28T06:16:27;4.18;;;2.70;;
44214;SDS011;29884;47.450;19.124;2023-04-28T06:18:53;5.07;;;2.72;;
44214;SDS011;29884;47.450;19.124;2023-04-28T06:21:19;5.32;;;2.88;;
44214;SDS011;29884;47.450;19.124;2023-04-28T06:26:20;5.35;;;2.58;;
44214;SDS011;29884;47.450;19.124;2023-04-28T06:28:57;6.47;;;2.70;;
44214;SDS011;29884;47.450;19.124;2023-04-28T06:31:23;6.03;;;2.83;;
44214;SDS011;29884;47.450;19.124;2023-04-28T06:33:49;8.88;;;2.60;;
44214;SDS011;29884;47.450;19.124;2023-04-28T06:36:15;4.97;;;2.53;;
44214;SDS011;29884;47.450;19.124;2023-04-28T06:38:42;7.03;;;2.88;;
44214;SDS011;29884;47.450;19.124;2023-04-28T06:41:09;4.57;;;2.80;;
44214;SDS011;29884;47.450;19.124;2023-04-28T06:43:35;3.90;;;2.25;;
44214;SDS011;29884;47.450;19.124;2023-04-28T06:46:02;4.97;;;2.53;;
44214;SDS011;29884;47.450;19.124;2023-04-28T06:48:28;6.57;;;2.70;;
44214;SDS011;29884;47.450;19.124;2023-04-28T06:53:35;8.40;;;3.63;;
44214;SDS011;29884;47.450;19.124;2023-04-28T06:58:37;6.65;;;3.80;;
44214;SDS011;29884;47.450;19.124;2023-04-28T07:01:04;5.30;;;2.78;;
44214;SDS011;29884;47.450;19.124;2023-04-28T07:03:30;7.15;;;3.10;;
44214;SDS011;29884;47.450;19.124;2023-04-28T07:05:56;5.57;;;2.90;;
44214;SDS011;29884;47.450;19.124;2023-04-28T07:08:22;5.55;;;2.95;;
44214;SDS011;29884;47.450;19.124;2023-04-28T07:10:48;6.07;;;2.90;;
44214;SDS011;29884;47.450;19.124;2023-04-28T07:13:14;6.50;;;2.65;;
44214;SDS011;29884;47.450;19.124;2023-04-28T07:15:40;4.97;;;2.40;;
44214;SDS011;29884;47.450;19.124;2023-04-28T07:18:06;5.60;;;2.85;;
44214;SDS011;29884;47.450;19.124;2023-04-28T08:15:10;2.88;;;1.30;;
44214;SDS011;29884;47.450;19.124;2023-04-28T08:20:24;7.90;;;1.83;;
44214;SDS011;29884;47.450;19.124;2023-04-28T08:22:49;4.00;;;1.17;;
44214;SDS011;29884;47.450;19.124;2023-04-28T08:25:15;5.68;;;1.40;;
44214;SDS011;29884;47.450;19.124;2023-04-28T08:27:42;2.83;;;1.35;;
44214;SDS011;29884;47.450;19.124;2023-04-28T08:30:10;3.13;;;1.30;;
44214;SDS011;29884;47.450;19.124;2023-04-28T08:32:36;2.72;;;1.50;;
44214;SDS011;29884;47.450;19.124;2023-04-28T08:35:01;4.93;;;1.25;;
44214;SDS011;29884;47.450;19.124;2023-04-28T08:37:27;2.47;;;1.15;;
44214;SDS011;29884;47.450;19.124;2023-04-28T08:39:53;3.15;;;1.40;;
44214;SDS011;29884;47.450;19.124;2023-04-28T08:42:29;4.15;;;1.27;;
44214;SDS011;29884;47.450;19.124;2023-04-28T08:44:56;3.20;;;1.02;;
44214;SDS011;29884;47.450;19.124;2023-04-28T08:47:23;5.53;;;1.00;;
44214;SDS011;29884;47.450;19.124;2023-04-28T08:50:04;3.28;;;0.90;;
44214;SDS011;29884;47.450;19.124;2023-04-28T08:52:31;1.85;;;0.80;;
44214;SDS011;29884;47.450;19.124;2023-04-28T08:54:58;2.45;;;0.75;;
44214;SDS011;29884;47.450;19.124;2023-04-28T08:57:26;3.10;;;0.95;;
44214;SDS011;29884;47.450;19.124;2023-04-28T08:59:58;2.17;;;1.08;;
44214;SDS011;29884;47.450;19.124;2023-04-28T09:02:24;1.95;;;0.90;;
44214;SDS011;29884;47.450;19.124;2023-04-28T09:04:50;1.55;;;0.80;;
44214;SDS011;29884;47.450;19.124;2023-04-28T09:07:16;2.13;;;0.90;;
44214;SDS011;29884;47.450;19.124;2023-04-28T09:09:42;2.78;;;0.90;;
44214;SDS011;29884;47.450;19.124;2023-04-28T09:12:09;2.55;;;0.90;;
44214;SDS011;29884;47.450;19.124;2023-04-28T09:14:35;4.30;;;0.80;;
44214;SDS011;29884;47.450;19.124;2023-04-28T09:17:08;3.15;;;0.88;;
44214;SDS011;29884;47.450;19.124;2023-04-28T09:19:38;2.90;;;0.90;;
44214;SDS011;29884;47.450;19.124;2023-04-28T09:22:06;6.22;;;0.80;;
44214;SDS011;29884;47.450;19.124;2023-04-28T09:27:06;2.00;;;0.70;;
44214;SDS011;29884;47.450;19.124;2023-04-28T09:29:34;2.17;;;0.80;;
44214;SDS011;29884;47.450;19.124;2023-04-28T09:32:17;1.50;;;0.80;;
44214;SDS011;29884;47.450;19.124;2023-04-28T09:34:44;3.35;;;0.80;;
44214;SDS011;29884;47.450;19.124;2023-04-28T09:37:21;2.83;;;0.90;;
44214;SDS011;29884;47.450;19.124;2023-04-28T09:39:49;2.22;;;0.80;;
44214;SDS011;29884;47.450;19.124;2023-04-28T09:42:35;2.53;;;0.90;;
44214;SDS011;29884;47.450;19.124;2023-04-28T09:45:05;2.63;;;0.90;;
44214;SDS011;29884;47.450;19.124;2023-04-28T09:47:33;2.22;;;0.82;;
44214;SDS011;29884;47.450;19.124;2023-04-28T09:50:01;3.15;;;0.75;;
44214;SDS011;29884;47.450;19.124;2023-04-28T09:52:33;3.50;;;1.10;;
44214;SDS011;29884;47.450;19.124;2023-04-28T09:55:04;2.45;;;0.98;;
44214;SDS011;29884;47.450;19.124;2023-04-28T09:57:33;1.95;;;0.90;;
44214;SDS011;29884;47.450;19.124;2023-04-28T09:59:59;1.85;;;0.90;;
44214;SDS011;29884;47.450;19.124;2023-04-28T10:02:26;3.58;;;1.20;;
44214;SDS011;29884;47.450;19.124;2023-04-28T10:04:53;3.22;;;0.90;;
44214;SDS011;29884;47.450;19.124;2023-04-28T10:07:19;1.95;;;0.90;;
44214;SDS011;29884;47.450;19.124;2023-04-28T10:09:46;1.55;;;0.75;;
44214;SDS011;29884;47.450;19.124;2023-04-28T10:12:17;1.95;;;0.80;;
44214;SDS011;29884;47.450;19.124;2023-04-28T10:14:47;2.25;;;0.90;;
44214;SDS011;29884;47.450;19.124;2023-04-28T10:17:15;3.60;;;0.80;;
44214;SDS011;29884;47.450;19.124;2023-04-28T10:19:42;3.22;;;0.80;;
44214;SDS011;29884;47.450;19.124;2023-04-28T10:25:31;3.38;;;0.70;;
44214;SDS011;29884;47.450;19.124;2023-04-28T10:27:59;1.98;;;0.70;;
44214;SDS011;29884;47.450;19.124;2023-04-28T10:30:30;1.40;;;1.00;;
44214;SDS011;29884;47.450;19.124;2023-04-28T10:38:16;2.50;;;0.80;;
44214;SDS011;29884;47.450;19.124;2023-04-28T10:56:09;2.35;;;0.80;;
44214;SDS011;29884;47.450;19.124;2023-04-28T10:58:49;1.75;;;0.80;;
44214;SDS011;29884;47.450;19.124;2023-04-28T11:01:24;2.75;;;0.75;;
44214;SDS011;29884;47.450;19.124;2023-04-28T11:04:25;2.40;;;0.70;;
44214;SDS011;29884;47.450;19.124;2023-04-28T11:06:45;2.50;;;0.70;;
44214;SDS011;29884;47.450;19.124;2023-04-28T11:16:53;2.78;;;0.80;;
44214;SDS011;29884;47.450;19.124;2023-04-28T11:19:26;4.35;;;0.80;;
44214;SDS011;29884;47.450;19.124;2023-04-28T11:21:58;1.80;;;0.75;;
44214;SDS011;29884;47.450;19.124;2023-04-28T11:24:25;1.70;;;0.75;;
44214;SDS011;29884;47.450;19.124;2023-04-28T11:26:53;1.90;;;0.70;;
44214;SDS011;29884;47.450;19.124;2023-04-28T11:29:33;2.45;;;0.80;;
44214;SDS011;29884;47.450;19.124;2023-04-28T11:32:03;1.70;;;0.70;;
44214;SDS011;29884;47.450;19.124;2023-04-28T11:34:30;1.52;;;0.70;;
44214;SDS011;29884;47.450;19.124;2023-04-28T11:36:57;0.95;;;0.60;;
44214;SDS011;29884;47.450;19.124;2023-04-28T11:39:26;1.33;;;0.70;;
44214;SDS011;29884;47.450;19.124;2023-04-28T11:41:53;4.00;;;0.80;;
44214;SDS011;29884;47.450;19.124;2023-04-28T11:44:21;3.42;;;0.80;;
44214;SDS011;29884;47.450;19.124;2023-04-28T11:46:49;2.38;;;0.60;;
44214;SDS011;29884;47.450;19.124;2023-04-28T11:49:19;1.60;;;0.70;;
44214;SDS011;29884;47.450;19.124;2023-04-28T11:51:48;1.95;;;0.80;;
44214;SDS011;29884;47.450;19.124;2023-04-28T11:54:24;1.67;;;0.60;;
44214;SDS011;29884;47.450;19.124;2023-04-28T11:56:52;1.67;;;0.88;;
44214;SDS011;29884;47.450;19.124;2023-04-28T11:59:22;2.33;;;0.90;;
44214;SDS011;29884;47.450;19.124;2023-04-28T12:01:50;4.10;;;0.80;;
44214;SDS011;29884;47.450;19.124;2023-04-28T12:07:13;1.95;;;0.98;;
44214;SDS011;29884;47.450;19.124;2023-04-28T12:09:43;2.15;;;0.90;;
44214;SDS011;29884;47.450;19.124;2023-04-28T12:12:28;4.47;;;0.90;;
44214;SDS011;29884;47.450;19.124;2023-04-28T12:20:02;2.83;;;0.80;;
44214;SDS011;29884;47.450;19.124;2023-04-28T12:22:30;1.80;;;0.85;;
44214;SDS011;29884;47.450;19.124;2023-04-28T12:25:12;3.15;;;0.80;;
44214;SDS011;29884;47.450;19.124;2023-04-28T12:27:41;1.67;;;0.80;;
44214;SDS011;29884;47.450;19.124;2023-04-28T12:32:48;2.33;;;0.88;;
44214;SDS011;29884;47.450;19.124;2023-04-28T12:35:15;3.45;;;1.00;;
44214;SDS011;29884;47.450;19.124;2023-04-28T12:37:41;3.70;;;1.58;;
44214;SDS011;29884;47.450;19.124;2023-04-28T12:40:08;5.55;;;0.80;;
44214;SDS011;29884;47.450;19.124;2023-04-28T12:42:34;4.05;;;0.80;;
44214;SDS011;29884;47.450;19.124;2023-04-28T12:45:00;3.58;;;0.82;;
44214;SDS011;29884;47.450;19.124;2023-04-28T12:47:26;1.30;;;0.75;;
44214;SDS011;29884;47.450;19.124;2023-04-28T12:49:52;3.15;;;0.80;;
44214;SDS011;29884;47.450;19.124;2023-04-28T12:52:18;1.80;;;0.68;;
44214;SDS011;29884;47.450;19.124;2023-04-28T12:54:44;2.70;;;0.70;;
44214;SDS011;29884;47.450;19.124;2023-04-28T12:57:13;2.10;;;0.80;;
44214;SDS011;29884;47.450;19.124;2023-04-28T12:59:40;1.95;;;0.65;;
44214;SDS011;29884;47.450;19.124;2023-04-28T13:02:06;1.48;;;0.63;;
44214;SDS011;29884;47.450;19.124;2023-04-28T13:04:32;2.70;;;0.70;;
44214;SDS011;29884;47.450;19.124;2023-04-28T13:06:57;1.40;;;0.70;;
44214;SDS011;29884;47.450;19.124;2023-04-28T13:09:24;3.08;;;0.80;;
44214;SDS011;29884;47.450;19.124;2023-04-28T13:11:50;2.50;;;0.80;;
44214;SDS011;29884;47.450;19.124;2023-04-28T13:14:19;2.17;;;0.73;;
44214;SDS011;29884;47.450;19.124;2023-04-28T13:16:45;2.05;;;0.90;;
44214;SDS011;29884;47.450;19.124;2023-04-28T13:19:11;1.92;;;0.80;;
44214;SDS011;29884;47.450;19.124;2023-04-28T13:21:41;1.85;;;0.73;;
44214;SDS011;29884;47.450;19.124;2023-04-28T13:24:08;2.42;;;0.70;;
44214;SDS011;29884;47.450;19.124;2023-04-28T13:26:34;2.70;;;0.70;;
44214;SDS011;29884;47.450;19.124;2023-04-28T13:29:00;2.90;;;0.80;;
44214;SDS011;29884;47.450;19.124;2023-04-28T13:31:28;2.13;;;0.60;;
44214;SDS011;29884;47.450;19.124;2023-04-28T13:33:56;1.50;;;0.70;;
44214;SDS011;29884;47.450;19.124;2023-04-28T13:36:25;2.38;;;0.80;;
44214;SDS011;29884;47.450;19.124;2023-04-28T13:38:53;2.88;;;0.93;;
44214;SDS011;29884;47.450;19.124;2023-04-28T13:41:19;2.03;;;0.70;;
44214;SDS011;29884;47.450;19.124;2023-04-28T13:43:45;2.65;;;0.52;;
44214;SDS011;29884;47.450;19.124;2023-04-28T13:46:11;1.55;;;0.70;;
44214;SDS011;29884;47.450;19.124;2023-04-28T13:48:37;2.92;;;0.65;;
44214;SDS011;29884;47.450;19.124;2023-04-28T13:51:04;2.05;;;0.60;;
44214;SDS011;29884;47.450;19.124;2023-04-28T13:53:30;2.13;;;0.80;;
44214;SDS011;29884;47.450;19.124;2023-04-28T13:55:57;2.42;;;0.70;;
44214;SDS011;29884;47.450;19.124;2023-04-28T13:58:23;2.55;;;0.60;;
44214;SDS011;29884;47.450;19.124;2023-04-28T14:00:50;1.98;;;0.60;;
44214;SDS011;29884;47.450;19.124;2023-04-28T14:03:16;2.35;;;0.70;;
44214;SDS011;29884;47.450;19.124;2023-04-28T14:05:43;1.27;;;0.60;;
44214;SDS011;29884;47.450;19.124;2023-04-28T14:08:09;1.60;;;0.60;;
44214;SDS011;29884;47.450;19.124;2023-04-28T14:10:35;1.38;;;0.60;;
44214;SDS011;29884;47.450;19.124;2023-04-28T14:13:01;2.33;;;1.00;;
44214;SDS011;29884;47.450;19.124;2023-04-28T14:15:27;3.08;;;0.73;;
44214;SDS011;29884;47.450;19.124;2023-04-28T14:17:52;0.93;;;0.50;;
44214;SDS011;29884;47.450;19.124;2023-04-28T14:20:18;1.50;;;0.70;;
44214;SDS011;29884;47.450;19.124;2023-04-28T14:22:44;1.95;;;0.80;;
44214;SDS011;29884;47.450;19.124;2023-04-28T14:25:09;1.83;;;1.00;;
44214;SDS011;29884;47.450;19.124;2023-04-28T14:27:35;4.35;;;0.90;;
44214;SDS011;29884;47.450;19.124;2023-04-28T14:30:01;1.63;;;0.80;;
44214;SDS011;29884;47.450;19.124;2023-04-28T14:32:27;2.38;;;1.05;;
44214;SDS011;29884;47.450;19.124;2023-04-28T14:34:53;4.60;;;1.20;;
44214;SDS011;29884;47.450;19.124;2023-04-28T14:37:19;1.40;;;0.70;;
44214;SDS011;29884;47.450;19.124;2023-04-28T14:39:45;2.15;;;0.77;;
44214;SDS011;29884;47.450;19.124;2023-04-28T14:42:11;2.17;;;0.80;;
44214;SDS011;29884;47.450;19.124;2023-04-28T14:44:37;3.33;;;0.70;;
44214;SDS011;29884;47.450;19.124;2023-04-28T14:47:02;9.10;;;4.05;;
44214;SDS011;29884;47.450;19.124;2023-04-28T14:49:28;3.22;;;1.65;;
44214;SDS011;29884;47.450;19.124;2023-04-28T14:51:54;4.90;;;2.65;;
44214;SDS011;29884;47.450;19.124;2023-04-28T14:54:20;7.65;;;5.85;;
44214;SDS011;29884;47.450;19.124;2023-04-28T14:56:49;7.93;;;6.25;;
44214;SDS011;29884;47.450;19.124;2023-04-28T14:59:15;7.55;;;4.72;;
44214;SDS011;29884;47.450;19.124;2023-04-28T15:01:42;4.00;;;1.63;;
44214;SDS011;29884;47.450;19.124;2023-04-28T15:04:08;3.45;;;1.00;;
44214;SDS011;29884;47.450;19.124;2023-04-28T15:06:34;1.80;;;0.70;;
44214;SDS011;29884;47.450;19.124;2023-04-28T15:09:00;3.45;;;0.90;;
44214;SDS011;29884;47.450;19.124;2023-04-28T15:11:26;5.20;;;2.97;;
44214;SDS011;29884;47.450;19.124;2023-04-28T15:13:52;3.78;;;2.50;;
44214;SDS011;29884;47.450;19.124;2023-04-28T15:16:18;3.47;;;1.70;;
44214;SDS011;29884;47.450;19.124;2023-04-28T15:18:44;6.57;;;2.00;;
44214;SDS011;29884;47.450;19.124;2023-04-28T15:21:10;3.67;;;1.92;;
44214;SDS011;29884;47.450;19.124;2023-04-28T15:23:36;2.58;;;1.10;;
44214;SDS011;29884;47.450;19.124;2023-04-28T15:26:02;2.22;;;0.85;;
44214;SDS011;29884;47.450;19.124;2023-04-28T15:28:28;2.85;;;0.80;;
44214;SDS011;29884;47.450;19.124;2023-04-28T15:30:54;5.93;;;2.55;;
44214;SDS011;29884;47.450;19.124;2023-04-28T15:33:20;5.10;;;1.63;;
44214;SDS011;29884;47.450;19.124;2023-04-28T15:35:45;18.58;;;7.47;;
44214;SDS011;29884;47.450;19.124;2023-04-28T15:38:11;6.93;;;3.17;;
44214;SDS011;29884;47.450;19.124;2023-04-28T15:40:38;3.78;;;1.58;;
44214;SDS011;29884;47.450;19.124;2023-04-28T15:43:04;4.38;;;1.40;;
44214;SDS011;29884;47.450;19.124;2023-04-28T15:45:31;11.85;;;5.05;;
44214;SDS011;29884;47.450;19.124;2023-04-28T15:47:58;12.63;;;5.28;;
44214;SDS011;29884;47.450;19.124;2023-04-28T15:50:24;9.00;;;3.83;;
44214;SDS011;29884;47.450;19.124;2023-04-28T15:52:50;7.82;;;3.28;;
44214;SDS011;29884;47.450;19.124;2023-04-28T15:55:16;5.68;;;1.48;;
44214;SDS011;29884;47.450;19.124;2023-04-28T15:57:44;2.58;;;1.05;;
44214;SDS011;29884;47.450;19.124;2023-04-28T16:00:11;3.15;;;1.02;;
44214;SDS011;29884;47.450;19.124;2023-04-28T16:02:38;3.75;;;0.90;;
44214;SDS011;29884;47.450;19.124;2023-04-28T16:05:05;1.38;;;0.70;;
44214;SDS011;29884;47.450;19.124;2023-04-28T16:07:31;2.55;;;0.80;;
44214;SDS011;29884;47.450;19.124;2023-04-28T16:10:05;2.95;;;0.70;;
44214;SDS011;29884;47.450;19.124;2023-04-28T16:12:36;2.35;;;0.80;;
44214;SDS011;29884;47.450;19.124;2023-04-28T16:15:02;1.83;;;0.73;;
44214;SDS011;29884;47.450;19.124;2023-04-28T16:17:29;3.67;;;0.70;;
44214;SDS011;29884;47.450;19.124;2023-04-28T16:19:55;2.70;;;0.70;;
44214;SDS011;29884;47.450;19.124;2023-04-28T16:22:21;3.80;;;0.80;;